createdAt,value
2022-08-07T00:01:12.496Z,12.70
2022-08-07T00:06:29.476Z,12.59
2022-08-07T00:11:48.035Z,12.63
2022-08-07T00:17:03.095Z,12.52
2022-08-07T00:22:05.885Z,12.55
2022-08-07T00:27:09.321Z,12.56
2022-08-07T00:32:14.076Z,12.55
2022-08-07T00:37:17.858Z,12.53
2022-08-07T00:42:29.031Z,12.64
2022-08-07T00:48:08.783Z,12.56
2022-08-07T00:52:55.103Z,12.50
2022-08-07T00:57:57.575Z,12.42
2022-08-07T01:03:00.306Z,12.43
2022-08-07T01:08:03.787Z,12.26
2022-08-07T01:13:06.370Z,12.22
2022-08-07T01:18:09.635Z,12.16
2022-08-07T01:23:14.750Z,12.02
2022-08-07T01:28:18.357Z,11.81
2022-08-07T01:33:24.763Z,11.32
2022-08-07T01:38:35.685Z,11.74
2022-08-07T01:43:48.053Z,11.69
2022-08-07T01:48:51.305Z,11.75
2022-08-07T01:54:09.151Z,11.76
2022-08-07T01:59:31.070Z,11.81
2022-08-07T02:05:04.601Z,11.73
2022-08-07T02:10:14.381Z,11.81
2022-08-07T02:15:23.403Z,11.90
2022-08-07T02:20:31.586Z,11.85
2022-08-07T02:26:30.697Z,11.98
2022-08-07T02:31:09.146Z,12.02
2022-08-07T02:36:28.754Z,12.12
2022-08-07T02:41:39.995Z,12.06
2022-08-07T02:46:53.946Z,11.99
2022-08-07T02:52:00.194Z,11.93
2022-08-07T02:57:06.673Z,11.80
2022-08-07T03:02:10.550Z,11.69
2022-08-07T03:07:15.158Z,11.72
2022-08-07T03:12:22.676Z,11.69
2022-08-07T03:17:53.460Z,11.74
2022-08-07T03:23:00.409Z,11.83
2022-08-07T03:28:09.609Z,11.89
2022-08-07T03:33:39.883Z,12.01
2022-08-07T03:38:45.046Z,12.58
2022-08-07T03:43:56.743Z,13.03
2022-08-07T03:49:03.489Z,13.00
2022-08-07T03:54:35.713Z,14.37
2022-08-07T03:59:46.536Z,15.51
2022-08-07T04:05:07.428Z,16.19
2022-08-07T04:10:15.719Z,16.77
2022-08-07T04:15:24.053Z,17.40
2022-08-07T04:20:29.446Z,18.16
2022-08-07T04:25:35.812Z,17.46
2022-08-07T04:30:55.402Z,18.07
2022-08-07T04:36:10.525Z,18.60
2022-08-07T04:41:19.119Z,18.92
2022-08-07T04:47:04.400Z,19.47
2022-08-07T04:52:18.594Z,19.90
2022-08-07T04:58:33.703Z,20.08
2022-08-07T05:04:17.211Z,20.18
2022-08-07T05:09:45.346Z,19.79
2022-08-07T05:15:03.314Z,20.12
2022-08-07T05:20:09.811Z,20.90
2022-08-07T05:25:26.324Z,20.88
2022-08-07T05:30:40.977Z,20.10
2022-08-07T05:35:46.582Z,20.86
2022-08-07T05:40:51.486Z,20.58
2022-08-07T05:45:57.977Z,21.02
2022-08-07T05:51:02.356Z,20.80
2022-08-07T05:56:12.425Z,21.11
2022-08-07T06:01:21.098Z,21.11
2022-08-07T06:06:29.756Z,21.70
2022-08-07T06:11:38.839Z,21.77
2022-08-07T06:16:50.191Z,22.17
2022-08-07T06:22:14.499Z,22.07
2022-08-07T06:27:59.785Z,22.72
2022-08-07T06:32:49.955Z,22.53
2022-08-07T06:37:53.047Z,22.54
2022-08-07T06:42:58.250Z,22.68
2022-08-07T06:48:13.189Z,22.57
2022-08-07T06:55:28.773Z,23.27
2022-08-07T07:00:13.922Z,22.98
2022-08-07T07:04:28.529Z,23.17
2022-08-07T07:09:36.219Z,22.54
2022-08-07T07:14:50.572Z,21.96
2022-08-07T07:19:59.140Z,22.13
2022-08-07T07:26:33.045Z,22.24
2022-08-07T07:30:37.898Z,21.90
2022-08-07T07:36:04.539Z,21.98
2022-08-07T07:41:10.379Z,21.97
2022-08-07T07:46:38.023Z,21.74
2022-08-07T07:51:58.434Z,21.76
2022-08-07T07:57:01.570Z,21.86
2022-08-07T08:02:10.658Z,21.84
2022-08-07T08:07:14.640Z,22.39
2022-08-07T08:12:51.256Z,22.26
2022-08-07T08:17:57.733Z,22.19
2022-08-07T08:23:20.635Z,22.80
2022-08-07T08:28:37.768Z,23.18
2022-08-07T08:33:42.339Z,22.58
2022-08-07T08:38:52.171Z,22.60
2022-08-07T08:44:29.143Z,23.36
2022-08-07T08:50:15.126Z,23.37
2022-08-07T08:55:53.224Z,22.76
2022-08-07T09:01:21.734Z,23.41
2022-08-07T09:06:48.105Z,24.24
2022-08-07T09:12:30.188Z,24.43
2022-08-07T09:17:59.716Z,24.73
2022-08-07T09:24:33.528Z,24.28
2022-08-07T09:30:02.369Z,24.25
2022-08-07T09:34:41.959Z,23.55
2022-08-07T09:40:42.891Z,25.24
2022-08-07T09:47:27.431Z,24.66
2022-08-07T09:52:16.614Z,24.47
2022-08-07T09:57:30.203Z,23.74
2022-08-07T10:02:35.696Z,23.44
2022-08-07T10:07:57.122Z,23.73
2022-08-07T10:13:55.053Z,24.95
2022-08-07T10:18:59.561Z,26.12
2022-08-07T10:24:28.083Z,26.70
2022-08-07T10:30:07.149Z,26.47
2022-08-07T10:35:56.304Z,26.14
2022-08-07T10:41:51.365Z,25.61
2022-08-07T10:47:11.978Z,24.28
2022-08-07T10:52:31.795Z,23.93
2022-08-07T10:58:17.781Z,24.74
2022-08-07T11:03:55.049Z,24.50
2022-08-07T11:09:11.075Z,24.00
2022-08-07T11:14:45.906Z,24.40
2022-08-07T11:20:04.991Z,25.40
2022-08-07T11:25:16.777Z,26.68
2022-08-07T11:30:39.031Z,26.44
2022-08-07T11:35:59.872Z,25.85
2022-08-07T11:41:18.169Z,25.65
2022-08-07T11:47:04.458Z,25.31
2022-08-07T11:52:29.241Z,25.49
2022-08-07T11:57:59.479Z,25.85
2022-08-07T12:03:45.199Z,26.43
2022-08-07T12:08:49.102Z,26.16
2022-08-07T12:14:04.679Z,26.27
2022-08-07T12:19:35.538Z,26.85
2022-08-07T12:26:02.952Z,26.57
2022-08-07T12:31:53.208Z,27.97
2022-08-07T12:37:00.981Z,28.32
2022-08-07T12:42:04.172Z,28.85
2022-08-07T12:47:37.548Z,29.32
2022-08-07T12:52:52.359Z,28.54
2022-08-07T12:58:01.239Z,27.90
2022-08-07T13:03:52.170Z,27.07
2022-08-07T13:08:55.923Z,26.71
2022-08-07T13:13:58.531Z,26.62
2022-08-07T13:24:55.255Z,26.40
2022-08-07T13:30:19.104Z,27.41
2022-08-07T13:36:18.081Z,27.51
2022-08-07T13:41:42.883Z,28.02
2022-08-07T13:46:54.928Z,27.25
2022-08-07T13:52:33.526Z,26.93
2022-08-07T13:57:32.091Z,26.74
2022-08-07T14:02:51.088Z,26.90
2022-08-07T14:08:00.971Z,26.70
2022-08-07T14:13:04.823Z,27.12
2022-08-07T14:18:31.248Z,27.04
2022-08-07T14:24:00.282Z,26.74
2022-08-07T14:29:06.042Z,26.29
2022-08-07T14:34:29.181Z,26.30
2022-08-07T14:40:17.893Z,26.48
2022-08-07T14:45:20.850Z,26.97
2022-08-07T14:55:56.367Z,27.07
2022-08-07T15:01:21.484Z,26.80
2022-08-07T15:06:26.208Z,26.91
2022-08-07T15:11:51.089Z,26.87
2022-08-07T15:17:16.672Z,26.82
2022-08-07T15:22:31.227Z,26.76
2022-08-07T15:27:40.609Z,26.51
2022-08-07T15:33:05.632Z,26.04
2022-08-07T15:38:33.038Z,25.81
2022-08-07T15:44:07.126Z,25.46
2022-08-07T15:49:15.088Z,25.38
2022-08-07T15:54:18.261Z,25.41
2022-08-07T15:59:39.634Z,25.36
2022-08-07T16:04:47.503Z,25.23
2022-08-07T16:09:52.765Z,24.76
2022-08-07T16:15:54.474Z,24.61
2022-08-07T16:21:53.916Z,24.55
2022-08-07T16:26:30.951Z,24.61
2022-08-07T16:31:56.961Z,24.49
2022-08-07T16:38:06.364Z,24.71
2022-08-07T16:43:02.690Z,24.68
2022-08-07T16:48:27.687Z,24.77
2022-08-07T16:54:06.394Z,24.97
2022-08-07T16:59:20.412Z,25.06
2022-08-07T17:04:35.363Z,25.12
2022-08-07T17:10:07.154Z,24.79
2022-08-07T17:15:20.567Z,24.83
2022-08-07T17:20:35.700Z,24.75
2022-08-07T17:26:49.768Z,24.47
2022-08-07T17:32:30.118Z,24.55
2022-08-07T17:38:05.974Z,24.17
2022-08-07T17:43:17.825Z,24.20
2022-08-07T17:48:30.626Z,23.74
2022-08-07T17:54:00.574Z,23.41
2022-08-07T17:59:10.318Z,23.00
2022-08-07T18:04:34.510Z,22.89
2022-08-07T18:10:04.914Z,22.77
2022-08-07T18:15:13.045Z,22.52
2022-08-07T18:21:09.613Z,22.43
2022-08-07T18:25:50.259Z,22.33
2022-08-07T18:31:07.387Z,22.08
2022-08-07T18:36:16.088Z,21.96
2022-08-07T18:41:45.821Z,21.65
2022-08-07T18:47:00.216Z,21.56
2022-08-07T18:52:53.370Z,21.31
2022-08-07T18:58:05.704Z,21.07
2022-08-07T19:03:17.091Z,20.98
2022-08-07T19:08:26.744Z,20.89
2022-08-07T19:13:41.173Z,20.90
2022-08-07T19:18:52.819Z,20.83
2022-08-07T19:24:01.337Z,20.71
2022-08-07T19:31:04.383Z,20.61
2022-08-07T19:34:34.095Z,20.25
2022-08-07T19:39:56.037Z,20.25
2022-08-07T19:45:09.551Z,20.09
2022-08-07T19:50:41.299Z,19.90
2022-08-07T19:55:56.365Z,19.75
2022-08-07T20:00:58.741Z,19.60
2022-08-07T20:06:05.481Z,19.52
2022-08-07T20:11:12.257Z,19.44
2022-08-07T20:16:34.788Z,19.46
2022-08-07T20:21:47.436Z,19.33
2022-08-07T20:26:54.861Z,19.19
2022-08-07T20:32:00.060Z,19.11
2022-08-07T20:37:06.364Z,19.01
2022-08-07T20:42:12.586Z,18.89
2022-08-07T20:47:19.313Z,18.75
2022-08-07T20:52:30.204Z,18.67
2022-08-07T20:58:02.510Z,18.49
2022-08-07T21:03:07.758Z,18.47
2022-08-07T21:08:20.690Z,18.34
2022-08-07T21:13:57.967Z,18.30
2022-08-07T21:19:04.552Z,18.09
2022-08-07T21:24:18.500Z,18.04
2022-08-07T21:29:30.729Z,17.91
2022-08-07T21:34:58.703Z,17.74
2022-08-07T21:40:10.225Z,17.51
2022-08-07T21:46:03.266Z,17.55
2022-08-07T21:50:55.224Z,17.40
2022-08-07T21:56:16.784Z,17.24
2022-08-07T22:02:10.724Z,17.23
2022-08-07T22:07:22.860Z,17.17
2022-08-07T22:12:44.489Z,17.33
2022-08-07T22:17:53.884Z,17.31
2022-08-07T22:23:09.428Z,17.27
2022-08-07T22:28:32.137Z,17.16
2022-08-07T22:33:56.408Z,17.15
2022-08-07T22:39:13.870Z,17.18
2022-08-07T22:44:20.865Z,17.17
2022-08-07T22:49:37.897Z,17.17
2022-08-07T22:54:58.754Z,17.16
2022-08-07T23:00:28.532Z,17.11
2022-08-07T23:06:08.350Z,17.09
2022-08-07T23:11:24.549Z,17.03
2022-08-07T23:16:46.344Z,17.01
2022-08-07T23:22:10.996Z,16.94
2022-08-07T23:28:21.442Z,16.92
2022-08-07T23:34:35.850Z,16.88
2022-08-07T23:38:36.518Z,16.63
2022-08-07T23:44:15.681Z,16.39
2022-08-07T23:49:50.838Z,15.97
2022-08-07T23:55:02.082Z,15.39
